createdAt,value
2023-01-09T00:00:14.698Z,1.20
2023-01-09T00:02:16.505Z,1.00
2023-01-09T00:04:19.242Z,1.00
2023-01-09T00:06:21.008Z,1.10
2023-01-09T00:08:22.693Z,1.10
2023-01-09T00:10:24.487Z,0.90
2023-01-09T00:12:26.585Z,1.00
2023-01-09T00:14:28.725Z,1.10
2023-01-09T00:16:30.779Z,1.00
2023-01-09T00:18:32.829Z,0.90
2023-01-09T00:20:35.321Z,1.00
2023-01-09T00:22:37.883Z,1.10
2023-01-09T00:24:40.883Z,1.00
2023-01-09T00:26:43.109Z,1.00
2023-01-09T00:28:47.314Z,1.10
2023-01-09T00:30:56.729Z,1.00
2023-01-09T00:32:58.765Z,1.00
2023-01-09T00:35:00.560Z,1.17
2023-01-09T00:37:02.304Z,1.20
2023-01-09T00:39:04.805Z,1.30
2023-01-09T00:41:09.756Z,1.17
2023-01-09T00:43:12.234Z,1.20
2023-01-09T00:45:21.262Z,1.10
2023-01-09T00:47:29.289Z,1.40
2023-01-09T00:49:34.565Z,1.20
2023-01-09T00:51:37.735Z,1.20
2023-01-09T00:53:43.026Z,1.20
2023-01-09T00:55:44.888Z,1.27
2023-01-09T00:57:46.995Z,1.40
2023-01-09T00:59:49.022Z,1.20
2023-01-09T01:01:50.961Z,1.17
2023-01-09T01:03:53.028Z,1.13
2023-01-09T01:06:13.502Z,1.10
2023-01-09T01:08:18.929Z,1.20
2023-01-09T01:10:24.562Z,1.30
2023-01-09T01:12:26.523Z,1.10
2023-01-09T01:14:28.630Z,1.20
2023-01-09T01:16:30.514Z,1.10
2023-01-09T01:18:32.512Z,1.10
2023-01-09T01:20:34.431Z,1.20
2023-01-09T01:22:36.357Z,1.10
2023-01-09T01:24:38.496Z,1.10
2023-01-09T01:26:40.184Z,1.10
2023-01-09T01:28:42.641Z,1.20
2023-01-09T01:30:44.398Z,1.20
2023-01-09T01:32:46.175Z,1.07
2023-01-09T01:34:48.002Z,1.13
2023-01-09T01:36:49.718Z,1.20
2023-01-09T01:38:51.560Z,1.10
2023-01-09T01:40:54.731Z,1.30
2023-01-09T01:42:56.704Z,1.33
2023-01-09T01:45:15.511Z,1.13
2023-01-09T01:47:19.358Z,1.20
2023-01-09T01:49:21.955Z,1.20
2023-01-09T01:51:26.842Z,1.00
2023-01-09T01:53:34.322Z,1.47
2023-01-09T01:55:41.724Z,1.10
2023-01-09T01:57:48.403Z,1.10
2023-01-09T01:59:54.649Z,1.10
2023-01-09T02:02:01.551Z,1.00
2023-01-09T02:04:04.403Z,1.10
2023-01-09T02:06:06.973Z,1.10
2023-01-09T02:08:09.118Z,1.20
2023-01-09T02:10:11.094Z,1.10
2023-01-09T02:12:24.746Z,1.30
2023-01-09T02:14:31.435Z,1.00
2023-01-09T02:16:47.802Z,1.10
2023-01-09T02:19:23.596Z,1.10
2023-01-09T02:21:49.815Z,1.10
2023-01-09T02:24:03.705Z,0.90
2023-01-09T02:26:20.125Z,1.20
2023-01-09T02:28:49.703Z,1.20
2023-01-09T02:31:22.659Z,1.10
2023-01-09T02:33:51.240Z,1.30
2023-01-09T02:36:10.623Z,1.30
2023-01-09T02:38:32.930Z,1.20
2023-01-09T02:40:52.424Z,1.23
2023-01-09T02:42:57.157Z,1.30
2023-01-09T02:44:59.054Z,1.40
2023-01-09T02:47:03.753Z,1.17
2023-01-09T02:49:05.868Z,1.50
2023-01-09T02:51:07.841Z,1.30
2023-01-09T02:53:30.776Z,1.40
2023-01-09T02:55:47.678Z,1.20
2023-01-09T02:58:10.375Z,1.30
2023-01-09T03:00:35.180Z,1.40
2023-01-09T03:02:53.416Z,1.40
2023-01-09T03:05:03.628Z,1.57
2023-01-09T03:07:17.978Z,1.47
2023-01-09T03:09:24.004Z,1.50
2023-01-09T03:11:28.514Z,1.30
2023-01-09T03:13:59.898Z,1.60
2023-01-09T03:16:06.487Z,1.50
2023-01-09T03:18:11.643Z,1.50
2023-01-09T03:20:18.763Z,1.60
2023-01-09T03:22:20.635Z,1.77
2023-01-09T03:24:22.371Z,1.70
2023-01-09T03:26:24.659Z,1.90
2023-01-09T03:28:29.037Z,2.17
2023-01-09T03:30:32.663Z,2.07
2023-01-09T03:32:34.454Z,1.90
2023-01-09T03:34:36.264Z,1.83
2023-01-09T03:36:38.626Z,1.60
2023-01-09T03:38:40.894Z,1.63
2023-01-09T03:40:43.779Z,1.70
2023-01-09T03:42:45.929Z,1.87
2023-01-09T03:44:47.872Z,1.53
2023-01-09T03:46:50.298Z,1.50
2023-01-09T03:48:58.487Z,1.80
2023-01-09T03:51:00.341Z,1.73
2023-01-09T03:53:02.328Z,1.70
2023-01-09T03:55:04.503Z,1.60
2023-01-09T03:57:06.619Z,1.70
2023-01-09T03:59:08.526Z,1.93
2023-01-09T04:01:12.895Z,1.97
2023-01-09T04:03:16.821Z,1.50
2023-01-09T04:05:18.834Z,1.80
2023-01-09T04:07:20.809Z,2.17
2023-01-09T04:09:22.693Z,1.90
2023-01-09T04:11:24.771Z,1.63
2023-01-09T04:13:26.761Z,1.77
2023-01-09T04:15:28.794Z,1.67
2023-01-09T04:17:30.838Z,1.60
2023-01-09T04:19:32.607Z,2.30
2023-01-09T04:21:34.378Z,1.60
2023-01-09T04:23:36.267Z,1.90
2023-01-09T04:25:38.074Z,1.50
2023-01-09T04:27:39.935Z,1.50
2023-01-09T04:29:41.684Z,1.80
2023-01-09T04:31:43.503Z,1.73
2023-01-09T04:33:45.552Z,1.97
2023-01-09T04:35:47.381Z,1.77
2023-01-09T04:37:49.409Z,1.83
2023-01-09T04:39:53.918Z,2.10
2023-01-09T04:41:55.800Z,1.60
2023-01-09T04:43:57.779Z,1.97
2023-01-09T04:45:59.633Z,1.90
2023-01-09T04:48:01.407Z,1.70
2023-01-09T04:50:03.569Z,1.60
2023-01-09T04:52:05.733Z,1.93
2023-01-09T04:54:07.905Z,1.90
2023-01-09T04:56:10.176Z,1.70
2023-01-09T04:58:12.080Z,1.63
2023-01-09T05:00:14.247Z,1.70
2023-01-09T05:02:16.174Z,1.70
2023-01-09T05:04:18.196Z,1.60
2023-01-09T05:06:20.154Z,1.80
2023-01-09T05:08:22.000Z,1.90
2023-01-09T05:10:23.950Z,1.90
2023-01-09T05:12:25.831Z,1.70
2023-01-09T05:14:27.819Z,1.67
2023-01-09T05:16:31.361Z,1.80
2023-01-09T05:18:34.467Z,2.10
2023-01-09T05:20:37.321Z,2.20
2023-01-09T05:22:39.211Z,1.77
2023-01-09T05:24:41.180Z,2.03
2023-01-09T05:26:42.894Z,2.00
2023-01-09T05:28:44.643Z,2.03
2023-01-09T05:30:47.606Z,1.97
2023-01-09T05:32:49.336Z,1.73
2023-01-09T05:34:51.267Z,1.83
2023-01-09T05:36:53.210Z,2.13
2023-01-09T05:38:57.948Z,1.80
2023-01-09T05:40:59.752Z,1.93
2023-01-09T05:43:01.688Z,2.27
2023-01-09T05:45:03.985Z,2.07
2023-01-09T05:47:05.746Z,2.10
2023-01-09T05:49:07.543Z,1.67
2023-01-09T05:51:09.303Z,1.87
2023-01-09T05:53:11.187Z,2.10
2023-01-09T05:55:13.640Z,1.90
2023-01-09T05:57:15.447Z,2.67
2023-01-09T05:59:17.325Z,2.07
2023-01-09T06:01:19.213Z,2.60
2023-01-09T06:03:21.022Z,2.50
2023-01-09T06:05:22.816Z,2.20
2023-01-09T06:07:24.632Z,2.37
2023-01-09T06:09:26.355Z,2.50
2023-01-09T06:11:28.125Z,2.47
2023-01-09T06:13:29.875Z,2.27
2023-01-09T06:15:31.619Z,2.57
2023-01-09T06:17:33.350Z,2.80
2023-01-09T06:19:35.052Z,2.60
2023-01-09T06:21:37.026Z,2.40
2023-01-09T06:23:38.751Z,2.63
2023-01-09T06:25:40.868Z,2.73
2023-01-09T06:27:42.694Z,2.33
2023-01-09T06:29:44.444Z,2.20
2023-01-09T06:31:46.197Z,2.83
2023-01-09T06:33:47.923Z,2.20
2023-01-09T06:35:49.670Z,2.77
2023-01-09T06:37:51.785Z,2.43
2023-01-09T06:39:54.744Z,2.17
2023-01-09T06:41:56.624Z,2.20
2023-01-09T06:43:58.770Z,2.40
2023-01-09T06:46:00.633Z,2.57
2023-01-09T06:48:02.413Z,2.10
2023-01-09T06:50:04.335Z,2.97
2023-01-09T06:52:07.781Z,2.67
2023-01-09T06:54:09.502Z,3.03
2023-01-09T06:56:20.151Z,2.40
2023-01-09T06:58:21.897Z,2.50
2023-01-09T07:00:23.872Z,2.60
2023-01-09T07:02:25.601Z,2.70
2023-01-09T07:04:27.353Z,3.00
2023-01-09T07:06:29.175Z,2.50
2023-01-09T07:08:30.927Z,2.80
2023-01-09T07:10:32.685Z,2.60
2023-01-09T07:12:34.507Z,2.87
2023-01-09T07:14:36.360Z,2.47
2023-01-09T07:16:38.242Z,2.33
2023-01-09T07:18:39.967Z,2.90
2023-01-09T07:20:42.511Z,2.83
2023-01-09T07:22:45.086Z,2.63
2023-01-09T07:24:47.491Z,2.97
2023-01-09T07:26:49.414Z,2.97
2023-01-09T07:28:51.163Z,2.90
2023-01-09T07:30:53.224Z,3.37
2023-01-09T07:32:54.948Z,3.30
2023-01-09T07:34:56.902Z,2.50
2023-01-09T07:36:58.669Z,2.47
2023-01-09T07:39:00.673Z,2.30
2023-01-09T07:41:02.480Z,2.80
2023-01-09T07:43:04.506Z,3.30
2023-01-09T07:45:06.902Z,2.83
2023-01-09T07:47:08.660Z,2.40
2023-01-09T07:49:10.589Z,2.73
2023-01-09T07:51:12.773Z,2.50
2023-01-09T07:53:15.880Z,2.30
2023-01-09T07:55:17.797Z,2.50
2023-01-09T07:57:19.756Z,2.73
2023-01-09T07:59:21.804Z,2.20
2023-01-09T08:01:23.728Z,2.40
2023-01-09T08:03:26.817Z,2.57
2023-01-09T08:05:28.766Z,2.30
2023-01-09T08:07:30.610Z,2.57
2023-01-09T08:09:32.493Z,2.43
2023-01-09T08:11:34.308Z,2.20
2023-01-09T08:13:36.051Z,2.10
2023-01-09T08:15:40.213Z,2.47
2023-01-09T08:17:44.041Z,2.33
2023-01-09T08:19:45.914Z,2.13
2023-01-09T08:21:47.743Z,2.20
2023-01-09T08:23:50.664Z,2.10
2023-01-09T08:25:53.355Z,2.80
2023-01-09T08:27:55.205Z,3.00
2023-01-09T08:29:57.036Z,2.27
2023-01-09T08:31:58.988Z,2.30
2023-01-09T08:34:00.896Z,2.50
2023-01-09T08:36:02.789Z,2.30
2023-01-09T08:38:04.700Z,2.70
2023-01-09T08:40:07.060Z,2.60
2023-01-09T08:42:27.344Z,3.27
2023-01-09T08:44:47.833Z,4.30
2023-01-09T08:47:08.142Z,2.90
2023-01-09T08:49:09.899Z,2.03
2023-01-09T08:51:11.952Z,2.77
2023-01-09T08:53:13.931Z,2.77
2023-01-09T08:55:15.795Z,2.30
2023-01-09T08:57:17.723Z,2.23
2023-01-09T08:59:20.454Z,2.00
2023-01-09T09:01:22.365Z,1.63
2023-01-09T09:03:24.155Z,2.23
2023-01-09T09:05:28.333Z,1.90
2023-01-09T09:07:30.483Z,2.20
2023-01-09T09:09:32.347Z,2.17
2023-01-09T09:11:34.776Z,1.80
2023-01-09T09:13:36.581Z,1.97
2023-01-09T09:15:39.108Z,2.40
2023-01-09T09:17:40.909Z,1.90
2023-01-09T09:19:42.696Z,3.20
2023-01-09T09:21:45.464Z,2.20
2023-01-09T09:23:47.211Z,2.33
2023-01-09T09:25:49.033Z,2.30
2023-01-09T09:27:50.993Z,2.37
2023-01-09T09:29:52.975Z,2.80
2023-01-09T09:31:54.761Z,2.77
2023-01-09T09:33:57.282Z,2.83
2023-01-09T09:35:59.872Z,2.40
2023-01-09T09:38:05.309Z,2.30
2023-01-09T09:40:18.449Z,2.30
2023-01-09T09:42:54.803Z,2.80
2023-01-09T09:45:03.138Z,2.53
2023-01-09T09:47:46.432Z,2.30
2023-01-09T09:50:20.040Z,1.90
2023-01-09T09:52:42.318Z,2.60
2023-01-09T09:54:49.522Z,2.20
2023-01-09T09:56:56.360Z,2.10
2023-01-09T09:59:06.147Z,1.70
2023-01-09T10:01:09.995Z,2.00
2023-01-09T10:03:33.024Z,2.10
2023-01-09T10:05:40.585Z,2.10
2023-01-09T10:07:47.754Z,2.20
2023-01-09T10:09:54.216Z,1.73
2023-01-09T10:12:20.761Z,1.93
2023-01-09T10:14:24.701Z,1.53
2023-01-09T10:17:00.153Z,2.37
2023-01-09T10:19:10.684Z,1.60
2023-01-09T10:21:30.072Z,1.80
2023-01-09T10:23:55.103Z,1.57
2023-01-09T10:26:12.022Z,1.63
2023-01-09T10:28:29.385Z,1.80
2023-01-09T10:31:09.956Z,2.33
2023-01-09T10:33:20.387Z,1.53
2023-01-09T10:35:47.623Z,1.50
2023-01-09T10:37:53.267Z,1.40
2023-01-09T10:40:01.721Z,1.80
2023-01-09T10:42:27.154Z,1.03
2023-01-09T10:44:42.343Z,1.30
2023-01-09T10:46:51.772Z,1.20
2023-01-09T10:49:01.867Z,1.47
2023-01-09T10:51:14.193Z,1.40
2023-01-09T10:53:22.962Z,1.50
2023-01-09T10:55:49.476Z,1.50
2023-01-09T10:57:57.100Z,1.33
2023-01-09T10:59:59.015Z,1.57
2023-01-09T11:02:02.716Z,1.30
2023-01-09T11:04:18.022Z,1.40
2023-01-09T11:06:26.174Z,1.97
2023-01-09T11:08:43.393Z,1.63
2023-01-09T11:10:53.684Z,2.03
2023-01-09T11:13:14.657Z,1.60
2023-01-09T11:15:16.526Z,1.80
2023-01-09T11:17:25.930Z,1.27
2023-01-09T11:19:27.910Z,1.33
2023-01-09T11:21:36.180Z,1.70
2023-01-09T11:23:38.118Z,1.70
2023-01-09T11:25:56.282Z,1.47
2023-01-09T11:28:06.324Z,1.40
2023-01-09T11:30:17.743Z,1.90
2023-01-09T11:32:23.678Z,1.60
2023-01-09T11:34:31.619Z,1.87
2023-01-09T11:36:33.633Z,1.53
2023-01-09T11:38:56.901Z,1.40
2023-01-09T11:41:04.901Z,1.83
2023-01-09T11:43:12.388Z,1.73
2023-01-09T11:45:27.431Z,1.60
2023-01-09T11:47:40.853Z,1.47
2023-01-09T11:49:46.058Z,1.60
2023-01-09T11:52:25.093Z,1.50
2023-01-09T11:54:34.046Z,1.67
2023-01-09T11:56:37.450Z,1.70
2023-01-09T11:58:39.210Z,1.70
2023-01-09T12:01:01.425Z,1.80
2023-01-09T12:03:27.701Z,1.80
2023-01-09T12:05:56.218Z,1.80
2023-01-09T12:08:17.954Z,1.60
2023-01-09T12:10:41.379Z,2.00
2023-01-09T12:13:00.667Z,1.70
2023-01-09T12:15:23.273Z,1.80
2023-01-09T12:17:42.979Z,1.87
2023-01-09T12:19:44.782Z,1.60
2023-01-09T12:22:25.564Z,1.60
2023-01-09T12:24:44.477Z,2.37
2023-01-09T12:27:04.227Z,2.10
2023-01-09T12:29:51.704Z,1.73
2023-01-09T12:32:18.424Z,2.20
2023-01-09T12:34:20.378Z,1.90
2023-01-09T12:36:34.455Z,1.90
2023-01-09T12:38:49.056Z,1.70
2023-01-09T12:41:12.284Z,2.40
2023-01-09T12:43:25.573Z,2.40
2023-01-09T12:45:47.587Z,1.70
2023-01-09T12:47:52.284Z,2.10
2023-01-09T12:50:11.943Z,2.30
2023-01-09T12:52:23.381Z,1.80
2023-01-09T12:54:34.743Z,1.70
2023-01-09T12:56:45.356Z,2.10
2023-01-09T12:58:56.524Z,2.13
2023-01-09T13:01:00.796Z,1.63
2023-01-09T13:03:13.365Z,1.90
2023-01-09T13:05:26.583Z,1.97
2023-01-09T13:07:41.969Z,1.90
2023-01-09T13:09:49.367Z,1.90
2023-01-09T13:12:04.513Z,1.70
2023-01-09T13:14:21.412Z,2.03
2023-01-09T13:16:32.540Z,1.70
2023-01-09T13:18:41.826Z,2.30
2023-01-09T13:20:53.544Z,1.70
2023-01-09T13:22:55.835Z,2.07
2023-01-09T13:25:20.826Z,2.00
2023-01-09T13:27:25.933Z,2.00
2023-01-09T13:29:40.302Z,1.87
2023-01-09T13:32:14.536Z,1.73
2023-01-09T13:34:25.711Z,1.60
2023-01-09T13:36:34.091Z,1.80
2023-01-09T13:38:38.268Z,1.80
2023-01-09T13:40:40.129Z,1.40
2023-01-09T13:42:47.804Z,1.30
2023-01-09T13:44:53.221Z,1.87
2023-01-09T13:47:03.375Z,1.40
2023-01-09T13:49:05.553Z,1.30
2023-01-09T13:51:36.661Z,1.40
2023-01-09T13:53:41.204Z,2.00
2023-01-09T13:56:05.846Z,1.40
2023-01-09T13:58:13.614Z,1.40
2023-01-09T14:00:15.337Z,1.40
2023-01-09T14:02:35.620Z,1.40
2023-01-09T14:04:42.809Z,1.20
2023-01-09T14:07:20.867Z,1.10
2023-01-09T14:09:23.667Z,1.10
2023-01-09T14:11:27.564Z,1.10
2023-01-09T14:13:43.486Z,1.10
2023-01-09T14:15:47.251Z,1.17
2023-01-09T14:17:49.835Z,1.10
2023-01-09T14:19:57.110Z,1.10
2023-01-09T14:22:00.728Z,0.97
2023-01-09T14:24:06.985Z,1.10
2023-01-09T14:26:41.441Z,1.50
2023-01-09T14:28:43.905Z,1.23
2023-01-09T14:30:54.300Z,1.00
2023-01-09T14:33:22.425Z,1.10
2023-01-09T14:35:50.999Z,1.00
2023-01-09T14:38:34.225Z,1.10
2023-01-09T14:40:37.110Z,1.00
2023-01-09T14:42:41.747Z,1.10
2023-01-09T14:45:02.519Z,1.20
2023-01-09T14:47:25.155Z,1.10
2023-01-09T14:49:39.124Z,1.20
2023-01-09T14:51:45.985Z,1.20
2023-01-09T14:53:51.667Z,1.10
2023-01-09T14:55:57.954Z,1.40
2023-01-09T14:58:18.024Z,1.30
2023-01-09T15:00:20.531Z,1.30
2023-01-09T15:02:23.037Z,1.20
2023-01-09T15:04:31.863Z,1.23
2023-01-09T15:06:37.501Z,1.10
2023-01-09T15:08:39.357Z,1.23
2023-01-09T15:10:44.136Z,1.30
2023-01-09T15:12:48.115Z,1.20
2023-01-09T15:14:57.243Z,1.53
2023-01-09T15:17:00.098Z,1.40
2023-01-09T15:19:06.308Z,1.20
2023-01-09T15:21:19.217Z,1.33
2023-01-09T15:23:24.257Z,1.10
2023-01-09T15:25:40.423Z,1.20
2023-01-09T15:27:49.642Z,1.10
2023-01-09T15:29:52.296Z,1.33
2023-01-09T15:32:00.403Z,1.47
2023-01-09T15:34:04.011Z,1.30
2023-01-09T15:36:23.620Z,1.50
2023-01-09T15:38:26.631Z,1.37
2023-01-09T15:40:33.841Z,1.40
2023-01-09T15:42:57.659Z,1.20
2023-01-09T15:44:59.844Z,1.50
2023-01-09T15:47:04.364Z,1.30
2023-01-09T15:49:11.236Z,1.30
2023-01-09T15:51:16.790Z,1.30
2023-01-09T15:53:21.075Z,1.60
2023-01-09T15:55:35.408Z,1.30
2023-01-09T15:57:37.319Z,1.40
2023-01-09T15:59:39.132Z,1.60
2023-01-09T16:01:41.631Z,1.60
2023-01-09T16:03:43.705Z,1.60
2023-01-09T16:05:49.330Z,2.40
2023-01-09T16:07:51.789Z,3.90
2023-01-09T16:09:53.633Z,2.10
2023-01-09T16:11:59.012Z,1.90
2023-01-09T16:14:30.479Z,1.93
2023-01-09T16:16:34.216Z,1.83
2023-01-09T16:18:38.930Z,1.93
2023-01-09T16:20:41.542Z,1.93
2023-01-09T16:22:55.589Z,1.80
2023-01-09T16:25:01.736Z,2.00
2023-01-09T16:27:24.366Z,1.90
2023-01-09T16:29:33.175Z,2.13
2023-01-09T16:31:35.113Z,2.00
2023-01-09T16:33:46.008Z,2.50
2023-01-09T16:35:48.111Z,2.40
2023-01-09T16:37:49.960Z,2.27
2023-01-09T16:40:23.978Z,2.37
2023-01-09T16:42:44.490Z,2.20
2023-01-09T16:44:46.286Z,2.10
2023-01-09T16:46:48.299Z,2.00
2023-01-09T16:48:50.263Z,2.40
2023-01-09T16:50:52.053Z,2.13
2023-01-09T16:52:55.105Z,3.90
2023-01-09T16:54:57.054Z,4.33
2023-01-09T16:57:00.801Z,3.87
2023-01-09T16:59:02.595Z,2.93
2023-01-09T17:01:05.461Z,3.90
2023-01-09T17:03:12.375Z,3.30
2023-01-09T17:05:14.226Z,3.60
2023-01-09T17:07:17.354Z,2.10
2023-01-09T17:09:23.117Z,1.60
2023-01-09T17:11:31.479Z,1.80
2023-01-09T17:13:33.326Z,1.87
2023-01-09T17:15:35.960Z,1.87
2023-01-09T17:17:37.779Z,1.80
2023-01-09T17:19:39.890Z,1.90
2023-01-09T17:21:41.684Z,2.00
2023-01-09T17:23:43.645Z,2.40
2023-01-09T17:26:03.734Z,1.93
2023-01-09T17:28:24.265Z,1.90
2023-01-09T17:30:26.060Z,1.90
2023-01-09T17:32:31.400Z,1.80
2023-01-09T17:34:34.507Z,2.03
2023-01-09T17:36:36.420Z,1.90
2023-01-09T17:38:38.208Z,1.90
2023-01-09T17:40:40.059Z,2.00
2023-01-09T17:42:49.167Z,1.93
2023-01-09T17:44:55.628Z,1.80
2023-01-09T17:46:57.515Z,2.50
2023-01-09T17:49:02.940Z,2.13
2023-01-09T17:51:05.063Z,2.17
2023-01-09T17:53:06.959Z,2.53
2023-01-09T17:55:09.347Z,2.07
2023-01-09T17:57:16.761Z,2.13
2023-01-09T17:59:21.187Z,2.33
2023-01-09T18:01:23.035Z,2.03
2023-01-09T18:03:31.274Z,2.30
2023-01-09T18:05:34.092Z,1.80
2023-01-09T18:07:35.857Z,1.80
2023-01-09T18:09:37.670Z,1.70
2023-01-09T18:11:40.493Z,2.03
2023-01-09T18:13:45.010Z,2.00
2023-01-09T18:15:47.162Z,1.87
2023-01-09T18:17:48.925Z,1.57
2023-01-09T18:19:51.026Z,2.00
2023-01-09T18:21:52.891Z,2.07
2023-01-09T18:23:56.071Z,2.43
2023-01-09T18:25:57.985Z,1.70
2023-01-09T18:28:03.322Z,2.10
2023-01-09T18:30:06.988Z,2.00
2023-01-09T18:32:08.907Z,1.87
2023-01-09T18:34:10.871Z,1.80
2023-01-09T18:36:13.217Z,2.10
2023-01-09T18:38:16.315Z,2.10
2023-01-09T18:40:18.366Z,1.80
2023-01-09T18:42:23.856Z,1.70
2023-01-09T18:44:25.638Z,1.90
2023-01-09T18:46:32.372Z,2.20
2023-01-09T18:48:36.483Z,2.00
2023-01-09T18:50:38.284Z,1.90
2023-01-09T18:52:40.036Z,1.90
2023-01-09T18:54:42.906Z,2.00
2023-01-09T18:56:44.688Z,1.70
2023-01-09T18:58:47.591Z,2.00
2023-01-09T19:00:51.383Z,1.73
2023-01-09T19:02:53.168Z,1.70
2023-01-09T19:04:54.891Z,1.80
2023-01-09T19:06:57.949Z,1.80
2023-01-09T19:08:59.979Z,1.70
2023-01-09T19:11:02.627Z,1.73
2023-01-09T19:13:04.502Z,1.70
2023-01-09T19:15:11.512Z,2.00
2023-01-09T19:17:13.726Z,2.10
2023-01-09T19:19:15.919Z,1.90
2023-01-09T19:21:20.603Z,1.70
2023-01-09T19:23:26.084Z,2.00
2023-01-09T19:25:27.852Z,2.20
2023-01-09T19:27:30.411Z,2.30
2023-01-09T19:29:32.253Z,1.93
2023-01-09T19:31:34.410Z,2.10
2023-01-09T19:33:37.454Z,2.03
2023-01-09T19:35:39.493Z,1.60
2023-01-09T19:37:41.269Z,2.00
2023-01-09T19:39:43.015Z,1.90
2023-01-09T19:41:44.825Z,2.70
2023-01-09T19:43:48.016Z,2.20
2023-01-09T19:45:49.830Z,2.23
2023-01-09T19:47:51.695Z,1.80
2023-01-09T19:49:53.469Z,1.90
2023-01-09T19:51:55.840Z,1.60
2023-01-09T19:56:13.537Z,1.60
2023-01-09T19:58:15.304Z,1.80
2023-01-09T20:00:17.254Z,2.17
2023-01-09T20:04:21.217Z,1.77
2023-01-09T20:06:24.789Z,1.87
2023-01-09T20:08:26.480Z,1.87
2023-01-09T20:10:28.194Z,1.60
2023-01-09T20:12:31.202Z,1.53
2023-01-09T20:14:33.677Z,1.50
2023-01-09T20:16:35.479Z,1.60
2023-01-09T20:18:37.235Z,1.70
2023-01-09T20:20:39.014Z,1.63
2023-01-09T20:22:40.682Z,1.60
2023-01-09T20:24:42.537Z,1.63
2023-01-09T20:26:46.268Z,1.60
2023-01-09T20:28:48.368Z,1.70
2023-01-09T20:30:51.959Z,1.87
2023-01-09T20:32:53.989Z,2.00
2023-01-09T20:34:56.150Z,2.10
2023-01-09T20:36:57.862Z,2.00
2023-01-09T20:39:01.716Z,2.13
2023-01-09T20:41:12.699Z,1.90
2023-01-09T20:43:14.516Z,1.70
2023-01-09T20:45:16.572Z,1.80
2023-01-09T20:47:18.308Z,1.70
2023-01-09T20:49:20.590Z,1.63
2023-01-09T20:51:22.738Z,1.80
2023-01-09T20:53:24.472Z,1.80
2023-01-09T20:55:26.305Z,1.90
2023-01-09T20:57:28.238Z,1.60
2023-01-09T20:59:30.168Z,1.60
2023-01-09T21:01:33.092Z,1.80
2023-01-09T21:03:34.965Z,1.77
2023-01-09T21:05:40.440Z,1.53
2023-01-09T21:07:42.303Z,1.50
2023-01-09T21:09:44.053Z,1.40
2023-01-09T21:11:45.793Z,1.50
2023-01-09T21:13:47.947Z,1.30
2023-01-09T21:15:49.691Z,1.60
2023-01-09T21:17:51.442Z,1.50
2023-01-09T21:19:53.251Z,1.30
2023-01-09T21:21:55.005Z,1.40
2023-01-09T21:24:00.667Z,1.40
2023-01-09T21:26:07.579Z,1.50
2023-01-09T21:28:14.986Z,1.30
2023-01-09T21:30:16.849Z,1.30
2023-01-09T21:32:18.557Z,1.30
2023-01-09T21:34:20.806Z,1.23
2023-01-09T21:36:24.492Z,1.20
2023-01-09T21:38:26.657Z,1.40
2023-01-09T21:40:28.560Z,1.10
2023-01-09T21:42:50.770Z,1.30
2023-01-09T21:45:13.609Z,1.30
2023-01-09T21:47:15.648Z,1.20
2023-01-09T21:49:18.259Z,1.23
2023-01-09T21:51:20.190Z,1.30
2023-01-09T21:53:21.987Z,1.40
2023-01-09T21:55:23.970Z,1.30
2023-01-09T21:57:25.847Z,1.13
2023-01-09T21:59:28.994Z,1.17
2023-01-09T22:01:30.855Z,1.40
2023-01-09T22:03:32.597Z,1.20
2023-01-09T22:05:37.335Z,1.20
2023-01-09T22:07:39.373Z,1.10
2023-01-09T22:09:42.728Z,1.30
2023-01-09T22:11:44.929Z,1.20
2023-01-09T22:13:48.350Z,1.03
2023-01-09T22:15:50.330Z,1.30
2023-01-09T22:17:53.224Z,1.20
2023-01-09T22:19:54.916Z,1.20
2023-01-09T22:21:56.672Z,1.20
2023-01-09T22:24:01.482Z,1.33
2023-01-09T22:26:11.230Z,1.10
2023-01-09T22:28:13.173Z,1.30
2023-01-09T22:30:15.148Z,1.20
2023-01-09T22:32:16.941Z,1.20
2023-01-09T22:34:18.780Z,1.30
2023-01-09T22:36:21.142Z,1.30
2023-01-09T22:38:22.911Z,1.20
2023-01-09T22:40:24.770Z,1.30
2023-01-09T22:42:26.602Z,1.20
2023-01-09T22:44:28.373Z,1.30
2023-01-09T22:46:32.151Z,1.20
2023-01-09T22:48:34.681Z,1.13
2023-01-09T22:50:37.328Z,1.13
2023-01-09T22:52:39.287Z,1.30
2023-01-09T22:54:41.028Z,1.17
2023-01-09T22:56:42.810Z,1.30
2023-01-09T22:58:44.970Z,1.40
2023-01-09T23:00:46.714Z,1.33
2023-01-09T23:02:48.643Z,1.37
2023-01-09T23:04:50.659Z,1.20
2023-01-09T23:06:52.490Z,1.40
2023-01-09T23:08:54.305Z,1.10
2023-01-09T23:10:56.222Z,1.20
2023-01-09T23:12:57.944Z,1.40
2023-01-09T23:15:00.239Z,1.40
2023-01-09T23:17:02.923Z,1.30
2023-01-09T23:19:09.754Z,1.40
2023-01-09T23:21:11.665Z,1.20
2023-01-09T23:23:13.384Z,1.20
2023-01-09T23:25:15.756Z,1.30
2023-01-09T23:27:17.591Z,1.40
2023-01-09T23:29:19.417Z,1.47
2023-01-09T23:31:21.213Z,1.30
2023-01-09T23:33:23.280Z,1.30
2023-01-09T23:35:25.069Z,1.30
2023-01-09T23:37:27.224Z,1.40
2023-01-09T23:39:29.015Z,1.70
2023-01-09T23:41:49.130Z,1.50
2023-01-09T23:43:50.867Z,1.33
2023-01-09T23:45:52.909Z,1.40
2023-01-09T23:47:54.967Z,1.40
2023-01-09T23:49:56.844Z,1.40
2023-01-09T23:52:01.479Z,1.50
2023-01-09T23:54:03.369Z,1.53
2023-01-09T23:56:05.179Z,1.50
2023-01-09T23:58:07.515Z,1.50
